Cima, California
Current Conditions -  °F | °C
As of 3:55 PM on Saturday 22 Nov 2014 (Local Time) from KIFP Reporting Station
Clear Clear  
Wind Chill: 73°   Ceiling: Unl
Heat Index: 73°   Visibility: 10mi
Dew Point: 27°   Wind: 17mph
Humidity: 18%   Direction: 160°SSE
Pressure: 29.87"   Gusts: NA
Location:  35.24°N, 115.5°W
Report Text: KIFP 222355Z AUTO 16015KT 10SM CLR 23/M03 A2987 RMK AO2 PWINO
Loading
Personal Weather Stations






























Interactive Weather Map New forecast layout! Learn more

10-Day Weather Forecast

Advertisements
Track Severe Weather on mobile